createdAt,value
2023-04-09T00:01:43.958Z,26.63
2023-04-09T00:04:10.618Z,27.70
2023-04-09T00:06:37.277Z,26.07
2023-04-09T00:09:03.833Z,25.70
2023-04-09T00:11:30.389Z,26.40
2023-04-09T00:13:58.439Z,26.50
2023-04-09T00:16:25.050Z,27.67
2023-04-09T00:18:51.809Z,28.77
2023-04-09T00:21:18.561Z,25.60
2023-04-09T00:23:45.421Z,26.33
2023-04-09T00:26:12.131Z,27.33
2023-04-09T00:28:38.684Z,27.30
2023-04-09T00:31:05.661Z,25.37
2023-04-09T00:33:32.265Z,26.30
2023-04-09T00:35:58.862Z,28.20
2023-04-09T00:38:25.388Z,28.70
2023-04-09T00:40:51.981Z,29.17
2023-04-09T00:43:18.507Z,28.30
2023-04-09T00:45:45.553Z,27.37
2023-04-09T00:48:16.553Z,28.00
2023-04-09T00:50:43.270Z,27.70
2023-04-09T00:53:10.842Z,27.20
2023-04-09T00:55:40.135Z,27.20
2023-04-09T00:58:06.903Z,27.80
2023-04-09T01:00:33.576Z,27.30
2023-04-09T01:03:00.946Z,25.50
2023-04-09T01:05:54.608Z,28.40
2023-04-09T01:08:39.315Z,26.90
2023-04-09T01:11:28.428Z,27.47
2023-04-09T01:14:19.978Z,25.60
2023-04-09T01:16:49.722Z,27.03
2023-04-09T01:19:53.367Z,27.27
2023-04-09T01:22:29.502Z,27.40
2023-04-09T01:25:26.624Z,27.13
2023-04-09T01:28:17.517Z,24.00
2023-04-09T01:30:47.710Z,24.73
2023-04-09T01:33:15.472Z,26.73
2023-04-09T01:35:47.201Z,24.93
2023-04-09T01:38:14.572Z,25.40
2023-04-09T01:40:41.607Z,25.83
2023-04-09T01:43:08.776Z,24.87
2023-04-09T01:45:35.342Z,25.60
2023-04-09T01:48:03.114Z,25.00
2023-04-09T01:50:29.896Z,25.77
2023-04-09T01:52:56.941Z,25.17
2023-04-09T01:55:23.513Z,25.10
2023-04-09T01:57:50.299Z,25.33
2023-04-09T02:00:17.090Z,25.07
2023-04-09T02:02:55.332Z,27.63
2023-04-09T02:05:27.025Z,26.40
2023-04-09T02:07:56.537Z,27.63
2023-04-09T02:10:24.872Z,23.40
2023-04-09T02:12:52.774Z,26.00
2023-04-09T02:15:20.458Z,26.17
2023-04-09T02:17:47.201Z,24.90
2023-04-09T02:20:19.925Z,25.43
2023-04-09T02:22:46.968Z,25.23
2023-04-09T02:25:13.502Z,24.90
2023-04-09T02:27:40.218Z,24.90
2023-04-09T02:30:07.417Z,23.70
2023-04-09T02:32:34.545Z,26.30
2023-04-09T02:35:01.110Z,26.20
2023-04-09T02:37:27.892Z,25.43
2023-04-09T02:39:54.500Z,27.80
2023-04-09T02:42:21.811Z,24.30
2023-04-09T02:44:48.393Z,22.80
2023-04-09T02:47:15.243Z,24.90
2023-04-09T02:49:41.837Z,24.03
2023-04-09T02:52:10.515Z,25.10
2023-04-09T02:54:37.134Z,25.20
2023-04-09T02:57:03.966Z,24.03
2023-04-09T02:59:32.880Z,25.20
2023-04-09T03:01:59.765Z,24.40
2023-04-09T03:04:26.441Z,23.47
2023-04-09T03:06:53.316Z,23.83
2023-04-09T03:09:19.828Z,25.33
2023-04-09T03:11:46.668Z,23.20
2023-04-09T03:14:13.193Z,23.83
2023-04-09T03:16:40.052Z,24.10
2023-04-09T03:19:06.549Z,25.07
2023-04-09T03:21:33.427Z,25.13
2023-04-09T03:24:00.143Z,24.47
2023-04-09T03:26:26.720Z,23.93
2023-04-09T03:28:53.485Z,24.20
2023-04-09T03:31:20.400Z,25.53
2023-04-09T03:33:47.039Z,26.07
2023-04-09T03:36:13.520Z,24.17
2023-04-09T03:38:40.033Z,23.47
2023-04-09T03:41:06.569Z,22.47
2023-04-09T03:43:33.084Z,25.90
2023-04-09T03:45:59.547Z,22.67
2023-04-09T03:48:26.091Z,23.83
2023-04-09T03:50:53.884Z,24.63
2023-04-09T03:53:20.524Z,24.63
2023-04-09T03:55:47.117Z,25.40
2023-04-09T03:58:13.617Z,23.83
2023-04-09T04:00:40.227Z,23.63
2023-04-09T04:03:07.169Z,26.27
2023-04-09T04:05:33.755Z,23.83
2023-04-09T04:08:00.704Z,22.77
2023-04-09T04:10:27.225Z,23.97
2023-04-09T04:12:53.813Z,21.60
2023-04-09T04:15:20.359Z,22.60
2023-04-09T04:17:46.944Z,24.43
2023-04-09T04:20:13.519Z,22.03
2023-04-09T04:22:40.178Z,23.90
2023-04-09T04:25:07.016Z,23.00
2023-04-09T04:27:33.703Z,25.57
2023-04-09T04:30:02.090Z,25.23
2023-04-09T04:32:29.342Z,22.20
2023-04-09T04:34:55.849Z,23.70
2023-04-09T04:37:22.623Z,24.50
2023-04-09T04:39:49.110Z,24.80
2023-04-09T04:42:15.634Z,25.50
2023-04-09T04:44:42.798Z,24.10
2023-04-09T04:47:09.484Z,22.80
2023-04-09T04:49:35.977Z,24.70
2023-04-09T04:52:02.528Z,24.57
2023-04-09T04:54:29.012Z,22.97
2023-04-09T04:56:56.349Z,21.73
2023-04-09T04:59:22.941Z,21.57
2023-04-09T05:01:49.691Z,22.70
2023-04-09T05:04:16.225Z,21.93
2023-04-09T05:06:42.724Z,22.87
2023-04-09T05:09:09.305Z,21.37
2023-04-09T05:11:35.832Z,20.80
2023-04-09T05:14:02.322Z,21.67
2023-04-09T05:16:28.822Z,23.27
2023-04-09T05:18:55.466Z,21.97
2023-04-09T05:21:22.072Z,20.87
2023-04-09T05:23:48.550Z,24.00
2023-04-09T05:26:15.558Z,21.13
2023-04-09T05:28:42.060Z,22.10
2023-04-09T05:31:13.325Z,20.80
2023-04-09T05:33:40.240Z,21.80
2023-04-09T05:36:07.244Z,21.83
2023-04-09T05:38:34.315Z,22.10
2023-04-09T05:41:01.044Z,22.03
2023-04-09T05:43:27.749Z,22.20
2023-04-09T05:45:54.344Z,22.13
2023-04-09T05:48:21.186Z,21.97
2023-04-09T05:50:55.777Z,21.87
2023-04-09T05:53:23.181Z,18.90
2023-04-09T05:55:49.710Z,20.40
2023-04-09T05:58:16.570Z,19.90
2023-04-09T06:00:43.066Z,20.00
2023-04-09T06:03:09.964Z,19.70
2023-04-09T06:05:36.807Z,18.50
2023-04-09T06:08:03.494Z,19.63
2023-04-09T06:10:32.743Z,20.90
2023-04-09T06:12:59.217Z,20.80
2023-04-09T06:15:25.908Z,19.97
2023-04-09T06:17:52.436Z,18.77
2023-04-09T06:20:19.097Z,22.70
2023-04-09T06:22:45.973Z,20.97
2023-04-09T06:25:12.507Z,19.30
2023-04-09T06:27:39.120Z,20.20
2023-04-09T06:30:06.538Z,19.07
2023-04-09T06:32:35.579Z,20.17
2023-04-09T06:35:11.090Z,19.53
2023-04-09T06:37:37.761Z,21.10
2023-04-09T06:40:04.752Z,19.30
2023-04-09T06:42:31.244Z,20.70
2023-04-09T06:44:57.765Z,20.00
2023-04-09T06:47:24.442Z,19.90
2023-04-09T06:49:51.245Z,18.63
2023-04-09T06:52:17.792Z,19.83
2023-04-09T06:54:44.382Z,19.10
2023-04-09T06:57:10.959Z,21.17
2023-04-09T06:59:37.424Z,19.30
2023-04-09T07:02:04.012Z,22.60
2023-04-09T07:04:30.605Z,19.50
2023-04-09T07:06:59.199Z,20.80
2023-04-09T07:09:25.753Z,20.27
2023-04-09T07:11:52.393Z,19.87
2023-04-09T07:14:19.124Z,18.13
2023-04-09T07:16:46.607Z,20.00
2023-04-09T07:19:13.158Z,19.90
2023-04-09T07:21:39.776Z,19.20
2023-04-09T07:24:06.708Z,19.43
2023-04-09T07:26:33.440Z,19.93
2023-04-09T07:28:59.970Z,19.20
2023-04-09T07:31:27.092Z,19.97
2023-04-09T07:33:53.752Z,19.53
2023-04-09T07:36:20.775Z,19.87
2023-04-09T07:38:47.425Z,19.20
2023-04-09T07:41:14.143Z,20.63
2023-04-09T07:43:40.817Z,20.03
2023-04-09T07:46:07.517Z,19.03
2023-04-09T07:48:34.089Z,18.17
2023-04-09T07:51:01.144Z,19.17
2023-04-09T07:53:27.653Z,18.83
2023-04-09T07:55:54.610Z,18.70
2023-04-09T07:58:21.131Z,20.03
2023-04-09T08:00:48.634Z,19.17
2023-04-09T08:03:15.791Z,18.67
2023-04-09T08:05:42.439Z,19.50
2023-04-09T08:08:08.951Z,20.03
2023-04-09T08:10:35.442Z,18.80
2023-04-09T08:13:01.929Z,19.10
2023-04-09T08:15:28.513Z,19.03
2023-04-09T08:17:55.158Z,18.63
2023-04-09T08:20:21.961Z,18.13
2023-04-09T08:22:48.692Z,18.47
2023-04-09T08:25:15.381Z,19.43
2023-04-09T08:27:41.904Z,18.30
2023-04-09T08:30:09.113Z,18.20
2023-04-09T08:32:36.353Z,18.73
2023-04-09T08:35:03.021Z,18.50
2023-04-09T08:37:29.774Z,18.97
2023-04-09T08:39:56.486Z,18.70
2023-04-09T08:42:25.242Z,18.63
2023-04-09T08:44:51.836Z,17.30
2023-04-09T08:47:19.605Z,18.03
2023-04-09T08:49:48.442Z,17.60
2023-04-09T08:52:16.654Z,16.70
2023-04-09T08:54:43.222Z,16.80
2023-04-09T08:57:09.791Z,17.93
2023-04-09T08:59:37.328Z,18.50
2023-04-09T09:02:08.595Z,16.20
2023-04-09T09:04:48.789Z,17.60
2023-04-09T09:07:16.842Z,16.50
2023-04-09T09:09:56.566Z,17.43
2023-04-09T09:12:43.212Z,16.20
2023-04-09T09:15:29.768Z,15.67
2023-04-09T09:17:58.243Z,14.47
2023-04-09T09:20:25.491Z,15.13
2023-04-09T09:22:55.214Z,14.60
2023-04-09T09:25:24.533Z,14.40
2023-04-09T09:27:52.081Z,18.77
2023-04-09T09:30:26.616Z,12.20
2023-04-09T09:33:13.693Z,11.33
2023-04-09T09:35:51.095Z,11.50
2023-04-09T09:38:18.269Z,11.80
2023-04-09T09:40:45.002Z,11.50
2023-04-09T09:43:14.644Z,11.57
2023-04-09T09:45:42.041Z,11.10
2023-04-09T09:48:11.273Z,10.63
2023-04-09T09:50:39.646Z,11.30
2023-04-09T09:53:07.001Z,9.63
2023-04-09T09:55:35.354Z,10.63
2023-04-09T09:58:04.167Z,10.13
2023-04-09T10:00:32.880Z,10.67
2023-04-09T10:03:15.981Z,10.70
2023-04-09T10:05:42.698Z,9.70
2023-04-09T10:08:09.783Z,9.40
2023-04-09T10:10:39.359Z,9.90
2023-04-09T10:13:07.453Z,10.00
2023-04-09T10:15:34.087Z,9.43
2023-04-09T10:18:00.722Z,10.67
2023-04-09T10:20:37.792Z,10.53
2023-04-09T10:23:12.111Z,11.10
2023-04-09T10:25:38.620Z,11.20
2023-04-09T10:28:15.637Z,10.60
2023-04-09T10:30:43.797Z,10.37
2023-04-09T10:33:16.766Z,10.97
2023-04-09T10:35:46.961Z,11.17
2023-04-09T10:38:14.614Z,11.20
2023-04-09T10:40:48.073Z,11.00
2023-04-09T10:43:15.139Z,11.20
2023-04-09T10:45:42.230Z,11.60
2023-04-09T10:48:15.804Z,10.10
2023-04-09T10:50:44.386Z,10.53
2023-04-09T10:53:24.878Z,11.00
2023-04-09T10:55:52.957Z,11.60
2023-04-09T10:58:20.050Z,11.87
2023-04-09T11:00:51.083Z,10.50
2023-04-09T11:03:32.785Z,11.10
2023-04-09T11:06:02.463Z,11.43
2023-04-09T11:08:31.405Z,11.03
2023-04-09T11:10:59.402Z,11.63
2023-04-09T11:13:26.130Z,12.90
2023-04-09T11:15:56.017Z,11.90
2023-04-09T11:18:26.558Z,11.50
2023-04-09T11:21:01.672Z,11.07
2023-04-09T11:23:28.687Z,10.93
2023-04-09T11:25:56.152Z,13.20
2023-04-09T11:28:23.954Z,11.70
2023-04-09T11:30:51.428Z,11.77
2023-04-09T11:33:19.980Z,10.97
2023-04-09T11:35:47.252Z,10.43
2023-04-09T11:38:13.841Z,12.50
2023-04-09T11:40:51.436Z,11.20
2023-04-09T11:43:18.339Z,10.60
2023-04-09T11:45:47.079Z,11.83
2023-04-09T11:48:15.002Z,11.20
2023-04-09T11:50:41.578Z,11.43
2023-04-09T11:53:21.300Z,11.20
2023-04-09T11:55:50.684Z,11.90
2023-04-09T11:58:17.442Z,13.63
2023-04-09T12:00:44.064Z,12.27
2023-04-09T12:03:11.765Z,11.13
2023-04-09T12:05:40.672Z,13.27
2023-04-09T12:08:09.266Z,11.67
2023-04-09T12:10:38.155Z,10.57
2023-04-09T12:13:10.497Z,11.10
2023-04-09T12:15:40.914Z,9.90
2023-04-09T12:18:12.118Z,11.37
2023-04-09T12:20:40.066Z,10.17
2023-04-09T12:23:07.587Z,11.30
2023-04-09T12:25:39.417Z,12.40
2023-04-09T12:28:07.494Z,10.13
2023-04-09T12:30:34.871Z,11.00
2023-04-09T12:33:03.156Z,11.10
2023-04-09T12:35:29.747Z,10.37
2023-04-09T12:37:56.299Z,10.20
2023-04-09T12:40:22.989Z,10.00
2023-04-09T12:42:49.699Z,8.77
2023-04-09T12:45:18.197Z,9.90
2023-04-09T12:47:45.511Z,9.73
2023-04-09T12:50:13.126Z,10.70
2023-04-09T12:52:39.708Z,10.10
2023-04-09T12:55:07.395Z,8.90
2023-04-09T12:57:34.874Z,9.00
2023-04-09T13:00:01.567Z,9.40
2023-04-09T13:02:28.318Z,8.80
2023-04-09T13:04:54.953Z,9.20
2023-04-09T13:07:22.757Z,8.43
2023-04-09T13:09:52.583Z,9.77
2023-04-09T13:12:21.444Z,8.90
2023-04-09T13:14:48.460Z,8.77
2023-04-09T13:17:15.755Z,8.87
2023-04-09T13:19:42.946Z,8.53
2023-04-09T13:22:10.431Z,9.43
2023-04-09T13:24:37.864Z,9.63
2023-04-09T13:27:05.538Z,10.10
2023-04-09T13:29:32.495Z,8.37
2023-04-09T13:32:01.625Z,9.40
2023-04-09T13:34:28.332Z,8.77
2023-04-09T13:36:54.829Z,8.03
2023-04-09T13:39:21.368Z,7.80
2023-04-09T13:41:48.000Z,8.63
2023-04-09T13:44:14.679Z,9.00
2023-04-09T13:46:41.359Z,8.63
2023-04-09T13:49:08.251Z,8.30
2023-04-09T13:51:35.015Z,9.50
2023-04-09T13:54:02.802Z,8.67
2023-04-09T13:56:31.375Z,9.10
2023-04-09T13:58:57.867Z,8.60
2023-04-09T14:01:26.147Z,8.50
2023-04-09T14:03:53.269Z,7.77
2023-04-09T14:06:20.214Z,7.73
2023-04-09T14:08:46.981Z,7.87
2023-04-09T14:11:15.728Z,7.70
2023-04-09T14:13:42.479Z,8.23
2023-04-09T14:16:09.534Z,7.67
2023-04-09T14:18:36.396Z,8.50
2023-04-09T14:21:03.000Z,8.10
2023-04-09T14:23:29.579Z,8.10
2023-04-09T14:25:56.661Z,7.70
2023-04-09T14:28:23.217Z,8.67
2023-04-09T14:30:49.799Z,7.97
2023-04-09T14:33:16.298Z,7.57
2023-04-09T14:35:42.842Z,7.43
2023-04-09T14:38:09.938Z,7.20
2023-04-09T14:40:36.701Z,7.53
2023-04-09T14:43:03.495Z,7.57
2023-04-09T14:45:30.862Z,7.13
2023-04-09T14:47:57.700Z,8.30
2023-04-09T14:50:24.317Z,7.37
2023-04-09T14:52:50.942Z,7.93
2023-04-09T14:55:17.532Z,6.80
2023-04-09T14:57:44.101Z,9.17
2023-04-09T15:00:12.221Z,8.20
2023-04-09T15:02:39.218Z,7.63
2023-04-09T15:05:06.424Z,8.20
2023-04-09T15:07:33.320Z,7.30
2023-04-09T15:09:59.893Z,8.43
2023-04-09T15:12:31.215Z,8.17
2023-04-09T15:14:57.807Z,8.43
2023-04-09T15:17:24.981Z,9.53
2023-04-09T15:19:53.276Z,8.60
2023-04-09T15:22:21.363Z,8.70
2023-04-09T15:24:47.872Z,8.17
2023-04-09T15:27:14.406Z,8.30
2023-04-09T15:29:40.922Z,8.57
2023-04-09T15:32:07.634Z,7.90
2023-04-09T15:34:34.248Z,8.37
2023-04-09T15:37:00.902Z,8.50
2023-04-09T15:39:28.514Z,7.50
2023-04-09T15:41:58.534Z,7.60
2023-04-09T15:44:26.259Z,7.27
2023-04-09T15:46:52.936Z,8.27
2023-04-09T15:49:19.834Z,9.37
2023-04-09T15:51:46.553Z,9.27
2023-04-09T15:54:13.180Z,8.07
2023-04-09T15:56:40.398Z,6.97
2023-04-09T15:59:08.247Z,8.30
2023-04-09T16:01:36.281Z,9.03
2023-04-09T16:04:03.892Z,7.73
2023-04-09T16:06:30.963Z,8.30
2023-04-09T16:08:57.570Z,7.33
2023-04-09T16:11:24.137Z,6.97
2023-04-09T16:13:50.716Z,6.47
2023-04-09T16:16:18.971Z,6.90
2023-04-09T16:18:45.614Z,7.33
2023-04-09T16:21:12.512Z,6.73
2023-04-09T16:23:39.780Z,8.20
2023-04-09T16:26:06.962Z,7.43
2023-04-09T16:28:33.759Z,7.50
2023-04-09T16:31:00.445Z,7.50
2023-04-09T16:33:27.069Z,7.43
2023-04-09T16:35:53.646Z,7.50
2023-04-09T16:38:20.687Z,7.97
2023-04-09T16:40:47.380Z,6.50
2023-04-09T16:43:13.888Z,7.60
2023-04-09T16:45:40.732Z,7.97
2023-04-09T16:48:12.050Z,7.50
2023-04-09T16:50:42.851Z,6.80
2023-04-09T16:53:09.804Z,7.20
2023-04-09T16:55:36.647Z,6.83
2023-04-09T16:58:03.361Z,7.17
2023-04-09T17:00:29.903Z,6.77
2023-04-09T17:02:57.802Z,6.70
2023-04-09T17:05:24.969Z,7.93
2023-04-09T17:07:53.560Z,6.60
2023-04-09T17:10:20.680Z,6.40
2023-04-09T17:12:48.052Z,7.50
2023-04-09T17:15:14.595Z,7.87
2023-04-09T17:17:41.242Z,9.87
2023-04-09T17:20:08.201Z,9.07
2023-04-09T17:22:35.370Z,8.57
2023-04-09T17:25:02.549Z,8.20
2023-04-09T17:27:29.108Z,8.77
2023-04-09T17:29:56.001Z,8.27
2023-04-09T17:32:22.736Z,8.10
2023-04-09T17:34:49.475Z,7.77
2023-04-09T17:37:16.317Z,8.90
2023-04-09T17:39:42.994Z,8.73
2023-04-09T17:42:11.833Z,9.07
2023-04-09T17:44:39.032Z,9.13
2023-04-09T17:47:07.464Z,9.60
2023-04-09T17:49:34.293Z,10.50
2023-04-09T17:52:01.186Z,9.20
2023-04-09T17:54:33.581Z,11.27
2023-04-09T17:57:00.997Z,9.47
2023-04-09T17:59:27.749Z,11.20
2023-04-09T18:01:57.156Z,12.77
2023-04-09T18:04:24.590Z,24.93
2023-04-09T18:06:51.489Z,20.90
2023-04-09T18:09:18.552Z,23.57
2023-04-09T18:11:45.834Z,12.70
2023-04-09T18:14:12.651Z,15.70
2023-04-09T18:16:39.623Z,12.27
2023-04-09T18:19:06.735Z,15.20
2023-04-09T18:21:36.445Z,22.43
2023-04-09T18:24:04.008Z,15.73
2023-04-09T18:26:31.299Z,14.03
2023-04-09T18:29:00.167Z,11.33
2023-04-09T18:31:27.890Z,11.50
2023-04-09T18:33:54.567Z,10.90
2023-04-09T18:36:21.368Z,10.50
2023-04-09T18:38:48.016Z,10.57
2023-04-09T18:41:24.955Z,10.60
2023-04-09T18:43:51.831Z,11.33
2023-04-09T18:46:18.888Z,9.47
2023-04-09T18:48:47.060Z,9.40
2023-04-09T18:51:14.462Z,9.00
2023-04-09T18:53:41.783Z,9.17
2023-04-09T18:56:08.377Z,10.43
2023-04-09T18:58:36.030Z,11.53
2023-04-09T19:01:09.852Z,11.60
2023-04-09T19:03:36.576Z,14.20
2023-04-09T19:06:10.639Z,16.80
2023-04-09T19:08:38.404Z,16.17
2023-04-09T19:11:06.441Z,17.20
2023-04-09T19:13:33.624Z,17.40
2023-04-09T19:16:00.212Z,15.40
2023-04-09T19:18:26.824Z,15.07
2023-04-09T19:20:53.494Z,17.33
2023-04-09T19:23:20.331Z,15.77
2023-04-09T19:25:55.174Z,13.43
2023-04-09T19:28:22.607Z,13.77
2023-04-09T19:30:52.404Z,13.90
2023-04-09T19:33:26.802Z,15.00
2023-04-09T19:35:55.280Z,15.80
2023-04-09T19:38:22.088Z,19.77
2023-04-09T19:40:48.730Z,21.17
2023-04-09T19:43:15.654Z,23.33
2023-04-09T19:45:47.032Z,24.20
2023-04-09T19:48:13.860Z,25.37
2023-04-09T19:50:41.171Z,20.57
2023-04-09T19:53:07.804Z,20.73
2023-04-09T19:55:34.927Z,20.37
2023-04-09T19:58:02.143Z,20.37
2023-04-09T20:00:29.001Z,20.60
2023-04-09T20:02:55.881Z,21.50
2023-04-09T20:05:22.938Z,22.23
2023-04-09T20:07:49.964Z,24.77
2023-04-09T20:10:17.248Z,22.27
2023-04-09T20:12:47.624Z,34.67
2023-04-09T20:15:14.642Z,34.10
2023-04-09T20:17:44.035Z,36.70
2023-04-09T20:20:11.775Z,40.47
2023-04-09T20:22:43.022Z,37.30
2023-04-09T20:25:11.536Z,35.20
2023-04-09T20:27:38.615Z,35.00
2023-04-09T20:30:06.169Z,34.97
2023-04-09T20:32:33.094Z,36.40
2023-04-09T20:34:59.700Z,35.27
2023-04-09T20:37:26.200Z,32.00
2023-04-09T20:39:52.913Z,34.60
2023-04-09T20:42:19.417Z,32.50
2023-04-09T20:44:45.917Z,33.93
2023-04-09T20:47:13.075Z,31.50
2023-04-09T20:49:39.560Z,34.33
2023-04-09T20:52:09.229Z,33.47
2023-04-09T20:54:36.353Z,32.00
2023-04-09T20:57:03.483Z,33.17
2023-04-09T20:59:29.983Z,32.07
2023-04-09T21:01:57.321Z,30.17
2023-04-09T21:04:25.581Z,29.17
2023-04-09T21:06:52.306Z,29.80
2023-04-09T21:09:18.920Z,33.30
2023-04-09T21:11:45.602Z,29.90
2023-04-09T21:14:14.531Z,30.53
2023-04-09T21:16:41.290Z,29.97
2023-04-09T21:19:07.884Z,33.93
2023-04-09T21:21:34.756Z,38.90
2023-04-09T21:24:01.839Z,36.17
2023-04-09T21:26:35.826Z,35.70
2023-04-09T21:29:12.194Z,36.83
2023-04-09T21:31:38.825Z,50.50
2023-04-09T21:34:05.360Z,46.03
2023-04-09T21:36:36.214Z,53.70
2023-04-09T21:39:03.311Z,54.00
2023-04-09T21:41:29.946Z,56.17
2023-04-09T21:43:56.761Z,57.63
2023-04-09T21:46:23.648Z,63.50
2023-04-09T21:48:50.326Z,74.90
2023-04-09T21:51:16.885Z,76.33
2023-04-09T21:53:43.405Z,82.87
2023-04-09T21:56:10.701Z,91.30
2023-04-09T21:58:37.384Z,113.53
2023-04-09T22:01:04.452Z,105.60
2023-04-09T22:03:32.676Z,117.60
2023-04-09T22:05:59.423Z,116.43
2023-04-09T22:08:26.117Z,120.47
2023-04-09T22:10:52.620Z,109.80
2023-04-09T22:13:19.104Z,105.37
2023-04-09T22:15:45.734Z,102.73
2023-04-09T22:18:12.323Z,94.60
2023-04-09T22:20:38.832Z,96.33
2023-04-09T22:23:05.428Z,101.67
2023-04-09T22:25:34.920Z,95.17
2023-04-09T22:28:01.811Z,99.60
2023-04-09T22:30:28.334Z,103.43
2023-04-09T22:32:54.917Z,105.70
2023-04-09T22:35:21.494Z,118.07
2023-04-09T22:37:48.028Z,114.40
2023-04-09T22:40:15.966Z,109.50
2023-04-09T22:42:43.418Z,107.97
2023-04-09T22:45:11.715Z,104.70
2023-04-09T22:47:38.816Z,105.90
2023-04-09T22:50:07.028Z,106.73
2023-04-09T22:52:33.518Z,111.67
2023-04-09T22:55:00.324Z,106.20
2023-04-09T22:57:27.098Z,108.17
2023-04-09T22:59:53.612Z,107.80
2023-04-09T23:02:20.694Z,104.70
2023-04-09T23:04:47.471Z,102.33
2023-04-09T23:07:14.003Z,102.70
2023-04-09T23:09:40.895Z,102.50
2023-04-09T23:12:07.514Z,104.53
2023-04-09T23:14:34.242Z,104.73
2023-04-09T23:17:00.867Z,106.60
2023-04-09T23:19:27.420Z,109.83
2023-04-09T23:21:53.935Z,105.00
2023-04-09T23:24:20.680Z,108.80
2023-04-09T23:26:47.398Z,115.40
2023-04-09T23:29:13.886Z,112.60
2023-04-09T23:31:40.409Z,108.27
2023-04-09T23:34:06.997Z,118.23
2023-04-09T23:36:33.555Z,123.73
2023-04-09T23:39:00.713Z,133.70
2023-04-09T23:41:27.523Z,137.80
2023-04-09T23:43:54.587Z,143.50
2023-04-09T23:46:21.413Z,143.87
2023-04-09T23:48:47.928Z,137.07
2023-04-09T23:51:18.466Z,136.30
2023-04-09T23:53:45.458Z,143.37
2023-04-09T23:56:13.701Z,143.17
2023-04-09T23:58:40.403Z,142.30
